Tag: FI213

Latest METAR at Keflavik Airport: BIKF 042100Z 11041G55KT 9999 -RA OVC024 09/06

- October 6, 2019 07:57

Latest METAR at Keflavik Airport: BIKF 042100Z 11041G55KT 9999 -RA OVC024 09/06 Q0998 https://t.co/oxyahCBoFB Only 1 flight inbound, #FI213 from Copenhagen: https://t.co/v10HZFd0aV https://t.co/a5iYDGOGLR Click to ... Read More